createdAt,value
2019-02-02T00:01:33.760Z,77.77
2019-02-02T00:04:01.348Z,77.16
2019-02-02T00:06:28.683Z,77.51
2019-02-02T00:08:56.900Z,77.49
2019-02-02T00:11:24.538Z,77.00
2019-02-02T00:13:52.691Z,77.86
2019-02-02T00:16:20.098Z,78.59
2019-02-02T00:18:47.809Z,78.07
2019-02-02T00:21:15.170Z,78.00
2019-02-02T00:23:42.629Z,77.00
2019-02-02T00:26:12.331Z,77.91
2019-02-02T00:28:39.721Z,79.09
2019-02-02T00:31:07.451Z,79.60
2019-02-02T00:33:34.841Z,79.94
2019-02-02T00:36:01.963Z,79.94
2019-02-02T00:38:30.858Z,78.58
2019-02-02T00:40:59.510Z,78.83
2019-02-02T00:43:26.882Z,79.17
2019-02-02T00:45:54.453Z,80.31
2019-02-02T00:48:27.631Z,78.90
2019-02-02T00:50:55.300Z,79.54
2019-02-02T00:53:22.652Z,80.65
2019-02-02T00:55:55.649Z,80.96
2019-02-02T00:58:22.722Z,80.23
2019-02-02T01:00:50.099Z,79.62
2019-02-02T01:03:17.166Z,79.88
2019-02-02T01:05:45.241Z,80.27
2019-02-02T01:08:12.459Z,79.50
2019-02-02T01:10:41.382Z,78.91
2019-02-02T01:13:09.500Z,78.74
2019-02-02T01:15:37.264Z,80.65
2019-02-02T01:18:07.050Z,79.59
2019-02-02T01:20:35.151Z,77.65
2019-02-02T01:23:03.602Z,79.37
2019-02-02T01:25:30.668Z,80.74
2019-02-02T01:28:04.780Z,78.91
2019-02-02T01:30:27.199Z,79.39
2019-02-02T01:32:56.111Z,78.97
2019-02-02T01:35:23.190Z,80.52
2019-02-02T01:37:51.587Z,80.84
2019-02-02T01:40:19.259Z,78.08
2019-02-02T01:42:46.839Z,78.62
2019-02-02T01:45:20.093Z,80.38
2019-02-02T01:47:47.614Z,79.71
2019-02-02T01:50:16.589Z,79.02
2019-02-02T01:52:44.342Z,80.15
2019-02-02T01:55:13.050Z,81.48
2019-02-02T01:57:40.711Z,80.54
2019-02-02T02:00:12.399Z,79.47
2019-02-02T02:02:41.857Z,80.19
2019-02-02T02:05:09.258Z,80.61
2019-02-02T02:07:36.668Z,79.88
2019-02-02T02:10:05.663Z,80.47
2019-02-02T02:12:33.154Z,80.71
2019-02-02T02:15:01.409Z,80.29
2019-02-02T02:17:29.255Z,80.00
2019-02-02T02:19:58.150Z,80.89
2019-02-02T02:22:26.627Z,80.90
2019-02-02T02:24:54.406Z,80.81
2019-02-02T02:27:21.498Z,81.51
2019-02-02T02:29:49.003Z,80.59
2019-02-02T02:32:17.375Z,80.09
2019-02-02T02:34:45.958Z,81.23
2019-02-02T02:37:13.003Z,80.46
2019-02-02T02:39:41.879Z,78.96
2019-02-02T02:42:09.039Z,79.67
2019-02-02T02:44:36.407Z,80.53
2019-02-02T02:47:03.459Z,81.28
2019-02-02T02:49:31.007Z,79.87
2019-02-02T02:51:58.670Z,81.87
2019-02-02T02:54:25.754Z,81.46
2019-02-02T02:56:53.966Z,80.02
2019-02-02T02:59:21.014Z,81.24
2019-02-02T03:01:48.071Z,81.32
2019-02-02T03:04:16.203Z,80.80
2019-02-02T03:06:44.578Z,82.00
2019-02-02T03:09:11.843Z,80.19
2019-02-02T03:11:39.306Z,81.53
2019-02-02T03:14:06.355Z,82.07
2019-02-02T03:16:34.178Z,80.24
2019-02-02T03:19:02.707Z,79.75
2019-02-02T03:21:30.124Z,80.15
2019-02-02T03:23:57.224Z,80.32
2019-02-02T03:26:24.343Z,80.14
2019-02-02T03:28:53.863Z,79.99
2019-02-02T03:31:22.245Z,80.06
2019-02-02T03:33:49.575Z,80.36
2019-02-02T03:36:16.923Z,80.46
2019-02-02T03:38:44.081Z,81.84
2019-02-02T03:41:11.161Z,81.87
2019-02-02T03:43:39.429Z,81.99
2019-02-02T03:46:06.481Z,82.12
2019-02-02T03:48:33.864Z,81.07
2019-02-02T03:51:01.010Z,80.09
2019-02-02T03:53:28.364Z,80.16
2019-02-02T03:55:56.249Z,80.14
2019-02-02T03:58:23.695Z,81.09
2019-02-02T04:00:51.346Z,80.06
2019-02-02T04:03:18.804Z,79.73
2019-02-02T04:05:50.092Z,80.09
2019-02-02T04:08:18.047Z,80.44
2019-02-02T04:10:45.783Z,81.04
2019-02-02T04:13:13.239Z,80.65
2019-02-02T04:15:40.410Z,80.96
2019-02-02T04:18:07.487Z,81.85
2019-02-02T04:20:34.708Z,80.87
2019-02-02T04:23:01.855Z,80.58
2019-02-02T04:25:29.036Z,81.02
2019-02-02T04:27:56.471Z,80.44
2019-02-02T04:30:25.104Z,80.66
2019-02-02T04:32:52.189Z,80.99
2019-02-02T04:35:19.242Z,80.36
2019-02-02T04:37:47.310Z,81.37
2019-02-02T04:40:14.494Z,81.52
2019-02-02T04:42:41.554Z,80.71
2019-02-02T04:45:09.752Z,80.45
2019-02-02T04:47:37.046Z,81.35
2019-02-02T04:50:06.011Z,80.57
2019-02-02T04:52:33.878Z,81.21
2019-02-02T04:55:01.287Z,82.19
2019-02-02T04:57:28.693Z,82.53
2019-02-02T04:59:55.758Z,82.39
2019-02-02T05:02:24.214Z,82.27
2019-02-02T05:04:51.270Z,82.10
2019-02-02T05:07:18.318Z,81.83
2019-02-02T05:09:45.379Z,80.54
2019-02-02T05:12:12.759Z,81.00
2019-02-02T05:14:39.822Z,81.24
2019-02-02T05:17:07.233Z,80.17
2019-02-02T05:19:35.997Z,81.72
2019-02-02T05:22:04.780Z,81.66
2019-02-02T05:24:33.001Z,82.29
2019-02-02T05:27:01.228Z,82.51
2019-02-02T05:29:28.282Z,82.19
2019-02-02T05:31:55.332Z,82.22
2019-02-02T05:34:22.428Z,83.21
2019-02-02T05:36:49.569Z,83.45
2019-02-02T05:39:16.635Z,83.29
2019-02-02T05:41:43.679Z,82.30
2019-02-02T05:44:12.974Z,81.90
2019-02-02T05:46:40.450Z,83.02
2019-02-02T05:49:07.518Z,82.45
2019-02-02T05:51:35.870Z,83.09
2019-02-02T05:54:03.050Z,84.26
2019-02-02T05:56:30.122Z,84.64
2019-02-02T05:58:57.519Z,84.14
2019-02-02T06:01:26.078Z,84.31
2019-02-02T06:03:55.347Z,84.21
2019-02-02T06:06:24.863Z,83.69
2019-02-02T06:08:52.523Z,84.34
2019-02-02T06:11:19.866Z,83.99
2019-02-02T06:13:47.242Z,83.93
2019-02-02T06:16:16.421Z,84.21
2019-02-02T06:18:44.509Z,83.59
2019-02-02T06:21:12.254Z,83.97
2019-02-02T06:23:39.613Z,84.56
2019-02-02T06:26:06.705Z,83.22
2019-02-02T06:28:33.763Z,83.05
2019-02-02T06:31:00.878Z,83.07
2019-02-02T06:33:27.954Z,84.15
2019-02-02T06:35:55.405Z,83.37
2019-02-02T06:38:22.451Z,82.93
2019-02-02T06:40:49.657Z,80.83
2019-02-02T06:43:16.741Z,79.86
2019-02-02T06:45:43.805Z,81.77
2019-02-02T06:48:10.933Z,81.45
2019-02-02T06:50:39.778Z,81.64
2019-02-02T06:53:06.995Z,81.59
2019-02-02T06:55:34.042Z,81.52
2019-02-02T06:58:01.264Z,80.89
2019-02-02T07:00:28.386Z,80.83
2019-02-02T07:02:57.190Z,81.50
2019-02-02T07:05:24.264Z,79.98
2019-02-02T07:07:51.731Z,80.13
2019-02-02T07:10:23.984Z,79.30
2019-02-02T07:12:51.161Z,80.33
2019-02-02T07:15:20.545Z,80.63
2019-02-02T07:17:48.266Z,79.85
2019-02-02T07:20:15.925Z,81.03
2019-02-02T07:22:43.126Z,81.45
2019-02-02T07:25:10.433Z,81.30
2019-02-02T07:27:37.785Z,81.10
2019-02-02T07:30:08.092Z,81.54
2019-02-02T07:32:35.804Z,81.73
2019-02-02T07:35:03.839Z,81.70
2019-02-02T07:37:31.355Z,81.27
2019-02-02T07:40:00.277Z,79.43
2019-02-02T07:42:27.875Z,79.11
2019-02-02T07:44:56.073Z,79.73
2019-02-02T07:47:24.128Z,80.83
2019-02-02T07:49:51.183Z,80.87
2019-02-02T07:52:18.751Z,80.60
2019-02-02T07:54:45.948Z,81.54
2019-02-02T07:57:13.136Z,79.70
2019-02-02T07:59:40.212Z,79.41
2019-02-02T08:02:09.063Z,80.36
2019-02-02T08:04:37.234Z,80.69
2019-02-02T08:07:04.426Z,79.77
2019-02-02T08:09:32.586Z,80.32
2019-02-02T08:11:59.646Z,80.62
2019-02-02T08:14:26.686Z,80.88
2019-02-02T08:16:53.729Z,79.99
2019-02-02T08:19:20.978Z,80.12
2019-02-02T08:21:48.030Z,79.72
2019-02-02T08:24:16.017Z,79.62
2019-02-02T08:26:43.406Z,79.23
2019-02-02T08:29:10.779Z,79.35
2019-02-02T08:31:38.726Z,78.78
2019-02-02T08:34:05.934Z,79.45
2019-02-02T08:36:33.134Z,78.87
2019-02-02T08:39:01.568Z,79.19
2019-02-02T08:41:31.678Z,78.44
2019-02-02T08:43:58.730Z,78.32
2019-02-02T08:46:25.792Z,78.92
2019-02-02T08:48:53.282Z,79.93
2019-02-02T08:51:20.666Z,79.55
2019-02-02T08:53:48.042Z,79.17
2019-02-02T08:56:15.130Z,78.93
2019-02-02T08:58:44.011Z,79.70
2019-02-02T09:01:11.066Z,79.35
2019-02-02T09:03:38.308Z,79.36
2019-02-02T09:06:05.354Z,80.13
2019-02-02T09:08:32.494Z,79.10
2019-02-02T09:10:59.879Z,77.54
2019-02-02T09:13:27.546Z,77.38
2019-02-02T09:15:54.902Z,78.51
2019-02-02T09:18:23.194Z,78.82
2019-02-02T09:20:51.556Z,78.76
2019-02-02T09:23:19.337Z,78.99
2019-02-02T09:25:47.757Z,78.74
2019-02-02T09:28:16.205Z,77.82
2019-02-02T09:30:43.834Z,77.94
2019-02-02T09:33:11.289Z,79.17
2019-02-02T09:35:38.394Z,78.72
2019-02-02T09:38:05.449Z,77.79
2019-02-02T09:40:33.048Z,77.51
2019-02-02T09:43:00.713Z,78.11
2019-02-02T09:45:28.086Z,78.36
2019-02-02T09:47:55.233Z,78.22
2019-02-02T09:50:22.969Z,78.10
2019-02-02T09:52:50.050Z,77.66
2019-02-02T09:55:18.629Z,77.54
2019-02-02T09:57:47.825Z,78.89
2019-02-02T10:00:18.002Z,79.57
2019-02-02T10:02:45.966Z,78.27
2019-02-02T10:05:13.286Z,78.41
2019-02-02T10:07:42.174Z,78.34
2019-02-02T10:10:15.921Z,77.79
2019-02-02T10:12:44.210Z,77.96
2019-02-02T10:15:11.455Z,77.36
2019-02-02T10:17:40.330Z,76.23
2019-02-02T10:20:09.641Z,76.54
2019-02-02T10:22:37.118Z,76.05
2019-02-02T10:25:09.153Z,74.89
2019-02-02T10:27:36.612Z,74.25
2019-02-02T10:30:08.069Z,73.97
2019-02-02T10:32:35.819Z,74.56
2019-02-02T10:35:05.098Z,75.77
2019-02-02T10:37:32.234Z,75.14
2019-02-02T10:40:00.709Z,74.50
2019-02-02T10:42:27.750Z,74.06
2019-02-02T10:44:55.234Z,74.15
2019-02-02T10:47:24.100Z,74.04
2019-02-02T10:49:52.268Z,74.33
2019-02-02T10:52:19.604Z,75.56
2019-02-02T10:54:46.649Z,75.66
2019-02-02T10:57:13.701Z,74.86
2019-02-02T10:59:41.620Z,75.72
2019-02-02T11:02:09.330Z,74.85
2019-02-02T11:04:36.873Z,75.18
2019-02-02T11:07:05.117Z,73.82
2019-02-02T11:09:33.954Z,74.35
2019-02-02T11:12:01.302Z,74.82
2019-02-02T11:14:28.759Z,74.91
2019-02-02T11:16:56.436Z,75.19
2019-02-02T11:19:24.539Z,76.41
2019-02-02T11:21:52.348Z,76.82
2019-02-02T11:24:19.747Z,76.37
2019-02-02T11:26:47.526Z,76.26
2019-02-02T11:29:15.406Z,75.67
2019-02-02T11:31:42.905Z,76.78
2019-02-02T11:34:10.589Z,77.04
2019-02-02T11:36:37.896Z,75.63
2019-02-02T11:39:05.673Z,76.04
2019-02-02T11:41:34.887Z,75.84
2019-02-02T11:44:02.242Z,76.03
2019-02-02T11:46:29.903Z,75.98
2019-02-02T11:48:57.359Z,76.04
2019-02-02T11:51:24.441Z,75.64
2019-02-02T11:53:51.862Z,75.87
2019-02-02T11:56:19.558Z,76.61
2019-02-02T11:58:47.291Z,76.39
2019-02-02T12:01:16.835Z,76.55
2019-02-02T12:03:44.187Z,77.75
2019-02-02T12:06:11.446Z,78.06
2019-02-02T12:08:39.266Z,78.68
2019-02-02T12:11:06.346Z,78.08
2019-02-02T12:13:34.798Z,77.53
2019-02-02T12:16:01.915Z,77.66
2019-02-02T12:18:30.735Z,77.63
2019-02-02T12:20:57.793Z,77.76
2019-02-02T12:23:25.545Z,77.53
2019-02-02T12:25:53.514Z,77.13
2019-02-02T12:28:20.870Z,77.74
2019-02-02T12:30:48.328Z,77.37
2019-02-02T12:33:15.987Z,76.84
2019-02-02T12:35:44.263Z,78.37
2019-02-02T12:38:12.025Z,77.99
2019-02-02T12:40:39.074Z,77.78
2019-02-02T12:43:07.656Z,78.40
2019-02-02T12:45:46.582Z,77.51
2019-02-02T12:48:13.633Z,77.38
2019-02-02T12:50:40.974Z,78.57
2019-02-02T12:53:09.167Z,78.02
2019-02-02T12:55:39.921Z,78.49
2019-02-02T12:58:07.764Z,78.00
2019-02-02T13:00:34.926Z,77.95
2019-02-02T13:03:03.986Z,76.75
2019-02-02T13:05:31.063Z,78.44
2019-02-02T13:08:00.233Z,78.29
2019-02-02T13:10:27.309Z,77.79
2019-02-02T13:12:56.178Z,77.06
2019-02-02T13:15:23.370Z,77.25
2019-02-02T13:17:52.993Z,77.96
2019-02-02T13:20:20.444Z,77.92
2019-02-02T13:22:47.745Z,78.29
2019-02-02T13:25:16.640Z,79.12
2019-02-02T13:27:44.043Z,78.89
2019-02-02T13:30:18.159Z,78.44
2019-02-02T13:32:49.749Z,79.44
2019-02-02T13:35:16.395Z,79.15
2019-02-02T13:37:43.443Z,80.18
2019-02-02T13:40:13.769Z,80.60
2019-02-02T13:42:40.810Z,81.23
2019-02-02T13:45:09.916Z,80.25
2019-02-02T13:47:37.680Z,80.09
2019-02-02T13:50:07.558Z,80.88
2019-02-02T13:52:35.052Z,80.54
2019-02-02T13:55:02.138Z,80.15
2019-02-02T13:57:29.971Z,80.29
2019-02-02T13:59:57.729Z,78.86
2019-02-02T14:02:26.929Z,79.25
2019-02-02T14:04:55.714Z,78.96
2019-02-02T14:07:23.374Z,79.19
2019-02-02T14:09:50.762Z,78.35
2019-02-02T14:12:18.129Z,78.53
2019-02-02T14:14:45.512Z,79.07
2019-02-02T14:17:14.635Z,77.87
2019-02-02T14:19:42.066Z,77.47
2019-02-02T14:22:09.755Z,78.15
2019-02-02T14:24:37.106Z,77.43
2019-02-02T14:27:04.462Z,75.84
2019-02-02T14:29:34.073Z,76.91
2019-02-02T14:32:01.531Z,76.33
2019-02-02T14:34:39.558Z,77.94
2019-02-02T14:36:58.999Z,77.58
2019-02-02T14:39:26.055Z,77.60
2019-02-02T14:41:54.219Z,77.65
2019-02-02T14:44:21.786Z,77.09
2019-02-02T14:46:50.057Z,77.19
2019-02-02T14:49:17.418Z,77.73
2019-02-02T14:51:44.770Z,76.59
2019-02-02T14:54:12.527Z,75.82
2019-02-02T14:56:47.654Z,76.15
2019-02-02T14:59:10.243Z,76.57
2019-02-02T15:01:37.735Z,76.41
2019-02-02T15:04:06.055Z,76.78
2019-02-02T15:06:33.430Z,76.48
2019-02-02T15:09:00.475Z,75.85
2019-02-02T15:11:29.439Z,76.02
2019-02-02T15:13:56.801Z,75.86
2019-02-02T15:16:24.145Z,75.08
2019-02-02T15:18:51.805Z,74.93
2019-02-02T15:21:19.112Z,75.77
2019-02-02T15:23:46.327Z,74.63
2019-02-02T15:26:13.714Z,75.36
2019-02-02T15:28:40.745Z,75.77
2019-02-02T15:31:07.821Z,76.03
2019-02-02T15:33:37.900Z,76.10
2019-02-02T15:36:04.244Z,75.07
2019-02-02T15:38:31.690Z,75.80
2019-02-02T15:40:59.534Z,76.07
2019-02-02T15:43:27.601Z,74.71
2019-02-02T15:45:54.969Z,75.88
2019-02-02T15:48:26.967Z,76.33
2019-02-02T15:50:54.790Z,75.46
2019-02-02T15:53:23.373Z,75.31
2019-02-02T15:55:51.148Z,75.19
2019-02-02T15:58:19.846Z,74.93
2019-02-02T16:00:47.173Z,75.69
2019-02-02T16:03:14.548Z,75.29
2019-02-02T16:05:41.887Z,74.87
2019-02-02T16:08:11.487Z,75.81
2019-02-02T16:10:41.717Z,75.90
2019-02-02T16:13:09.270Z,75.47
2019-02-02T16:15:36.706Z,75.98
2019-02-02T16:18:04.904Z,76.01
2019-02-02T16:20:34.404Z,76.23
2019-02-02T16:23:02.788Z,76.76
2019-02-02T16:25:30.188Z,76.62
2019-02-02T16:27:58.560Z,76.75
2019-02-02T16:30:26.466Z,76.75
2019-02-02T16:32:53.840Z,76.04
2019-02-02T16:35:21.820Z,76.03
2019-02-02T16:37:49.472Z,75.68
2019-02-02T16:40:21.372Z,76.13
2019-02-02T16:42:48.700Z,76.60
2019-02-02T16:45:17.455Z,76.63
2019-02-02T16:47:44.521Z,76.17
2019-02-02T16:50:14.022Z,76.90
2019-02-02T16:52:41.793Z,75.66
2019-02-02T16:55:10.415Z,75.70
2019-02-02T16:57:38.550Z,74.93
2019-02-02T17:00:08.665Z,75.16
2019-02-02T17:02:37.088Z,75.19
2019-02-02T17:05:05.731Z,76.59
2019-02-02T17:07:34.418Z,76.33
2019-02-02T17:10:01.814Z,76.50
2019-02-02T17:12:31.678Z,77.34
2019-02-02T17:14:59.090Z,76.47
2019-02-02T17:17:26.742Z,76.62
2019-02-02T17:19:55.898Z,77.25
2019-02-02T17:22:23.255Z,78.62
2019-02-02T17:24:51.230Z,78.71
2019-02-02T17:27:18.581Z,78.87
2019-02-02T17:29:45.645Z,80.20
2019-02-02T17:32:13.592Z,81.01
2019-02-02T17:34:44.158Z,81.93
2019-02-02T17:37:11.573Z,82.67
2019-02-02T17:39:39.450Z,83.33
2019-02-02T17:42:06.802Z,83.93
2019-02-02T17:44:34.252Z,83.23
2019-02-02T17:47:01.917Z,82.97
2019-02-02T17:49:29.901Z,82.95
2019-02-02T17:51:58.465Z,82.24
2019-02-02T17:54:26.539Z,82.57
2019-02-02T17:56:55.227Z,83.22
2019-02-02T17:59:23.340Z,82.69
2019-02-02T18:01:51.180Z,82.50
2019-02-02T18:04:19.612Z,81.29
2019-02-02T18:06:47.101Z,82.45
2019-02-02T18:09:14.211Z,82.51
2019-02-02T18:11:44.811Z,82.61
2019-02-02T18:14:12.335Z,81.99
2019-02-02T18:16:39.387Z,81.24
2019-02-02T18:19:08.027Z,81.42
2019-02-02T18:21:35.090Z,81.22
2019-02-02T18:24:02.163Z,81.04
2019-02-02T18:26:29.221Z,82.00
2019-02-02T18:28:57.394Z,81.36
2019-02-02T18:31:24.659Z,82.19
2019-02-02T18:33:52.111Z,83.32
2019-02-02T18:36:19.280Z,83.10
2019-02-02T18:38:46.717Z,83.06
2019-02-02T18:41:13.798Z,82.39
2019-02-02T18:43:42.323Z,83.94
2019-02-02T18:46:09.373Z,84.21
2019-02-02T18:48:37.980Z,84.93
2019-02-02T18:51:07.077Z,83.79
2019-02-02T18:53:34.479Z,84.19
2019-02-02T18:56:08.219Z,85.27
2019-02-02T18:58:36.395Z,85.97
2019-02-02T19:01:04.255Z,86.00
2019-02-02T19:03:34.071Z,85.82
2019-02-02T19:06:01.523Z,86.46
2019-02-02T19:08:29.391Z,86.62
2019-02-02T19:10:56.457Z,86.89
2019-02-02T19:13:23.906Z,85.86
2019-02-02T19:15:52.755Z,85.58
2019-02-02T19:18:19.822Z,85.66
2019-02-02T19:20:47.839Z,86.18
2019-02-02T19:23:24.642Z,86.62
2019-02-02T19:25:44.423Z,85.37
2019-02-02T19:28:11.490Z,85.80
2019-02-02T19:30:38.570Z,86.80
2019-02-02T19:33:05.620Z,85.16
2019-02-02T19:35:32.695Z,83.55
2019-02-02T19:38:00.100Z,84.83
2019-02-02T19:40:27.512Z,84.73
2019-02-02T19:42:54.938Z,84.63
2019-02-02T19:45:23.667Z,84.98
2019-02-02T19:47:51.568Z,84.38
2019-02-02T19:50:22.514Z,85.48
2019-02-02T19:52:51.494Z,85.43
2019-02-02T19:55:20.693Z,86.36
2019-02-02T19:57:47.819Z,85.87
2019-02-02T20:00:21.216Z,87.19
2019-02-02T20:02:48.364Z,86.54
2019-02-02T20:05:27.515Z,85.02
2019-02-02T20:07:44.428Z,86.26
2019-02-02T20:10:13.564Z,86.02
2019-02-02T20:12:43.964Z,84.71
2019-02-02T20:15:15.073Z,85.94
2019-02-02T20:17:45.442Z,86.97
2019-02-02T20:20:17.048Z,85.82
2019-02-02T20:22:44.274Z,86.74
2019-02-02T20:25:11.632Z,87.05
2019-02-02T20:27:38.768Z,86.38
2019-02-02T20:30:08.005Z,85.10
2019-02-02T20:32:36.056Z,84.92
2019-02-02T20:35:04.356Z,86.36
2019-02-02T20:37:31.428Z,86.46
2019-02-02T20:39:58.464Z,87.00
2019-02-02T20:42:25.482Z,87.46
2019-02-02T20:44:53.605Z,86.32
2019-02-02T20:47:20.628Z,88.20
2019-02-02T20:49:47.697Z,87.66
2019-02-02T20:52:15.217Z,88.67
2019-02-02T20:54:43.309Z,88.90
2019-02-02T20:57:10.391Z,89.35
2019-02-02T20:59:37.834Z,89.13
2019-02-02T21:02:05.903Z,89.34
2019-02-02T21:04:33.703Z,88.68
2019-02-02T21:07:01.342Z,88.64
2019-02-02T21:09:28.427Z,88.26
2019-02-02T21:11:57.280Z,89.38
2019-02-02T21:14:25.359Z,88.64
2019-02-02T21:16:53.754Z,88.95
2019-02-02T21:19:22.896Z,88.67
2019-02-02T21:21:50.008Z,87.42
2019-02-02T21:24:17.812Z,86.32
2019-02-02T21:26:46.494Z,85.30
2019-02-02T21:29:14.157Z,85.41
2019-02-02T21:31:41.319Z,85.85
2019-02-02T21:34:08.770Z,85.08
2019-02-02T21:36:35.845Z,85.85
2019-02-02T21:39:06.658Z,87.00
2019-02-02T21:41:36.003Z,84.84
2019-02-02T21:44:03.811Z,85.11
2019-02-02T21:46:31.391Z,85.76
2019-02-02T21:48:58.743Z,84.13
2019-02-02T21:51:27.089Z,85.15
2019-02-02T21:53:55.590Z,85.00
2019-02-02T21:56:23.391Z,85.14
2019-02-02T21:58:51.420Z,84.09
2019-02-02T22:01:24.242Z,83.81
2019-02-02T22:03:47.872Z,83.17
2019-02-02T22:06:15.916Z,83.96
2019-02-02T22:08:43.113Z,85.00
2019-02-02T22:11:10.507Z,83.41
2019-02-02T22:13:38.212Z,84.29
2019-02-02T22:16:06.284Z,84.58
2019-02-02T22:18:34.148Z,83.65
2019-02-02T22:21:01.807Z,84.57
2019-02-02T22:23:28.968Z,84.37
2019-02-02T22:25:57.028Z,85.60
2019-02-02T22:28:28.579Z,85.27
2019-02-02T22:30:56.244Z,84.66
2019-02-02T22:33:24.927Z,82.78
2019-02-02T22:35:52.914Z,83.14
2019-02-02T22:38:20.666Z,82.81
2019-02-02T22:40:47.828Z,83.71
2019-02-02T22:43:14.880Z,84.54
2019-02-02T22:45:41.948Z,84.15
2019-02-02T22:48:09.707Z,83.46
2019-02-02T22:50:37.119Z,83.85
2019-02-02T22:53:04.800Z,83.44
2019-02-02T22:55:31.864Z,82.10
2019-02-02T22:57:59.688Z,83.01
2019-02-02T23:00:54.711Z,82.14
2019-02-02T23:04:03.785Z,81.81
2019-02-02T23:07:07.224Z,81.60
2019-02-02T23:10:23.540Z,81.95
2019-02-02T23:13:30.930Z,80.82
2019-02-02T23:16:29.112Z,81.27
2019-02-02T23:18:57.577Z,82.01
2019-02-02T23:21:25.818Z,82.67
2019-02-02T23:23:52.847Z,82.51
2019-02-02T23:26:20.475Z,81.98
2019-02-02T23:28:47.566Z,82.16
2019-02-02T23:31:16.719Z,81.65
2019-02-02T23:33:44.384Z,82.16
2019-02-02T23:36:11.750Z,81.90
2019-02-02T23:38:39.498Z,83.37
2019-02-02T23:41:06.850Z,83.48
2019-02-02T23:43:34.510Z,83.87
2019-02-02T23:46:02.383Z,82.62
2019-02-02T23:48:30.272Z,82.07
2019-02-02T23:50:57.675Z,82.69
2019-02-02T23:53:24.731Z,83.00
2019-02-02T23:55:51.821Z,83.25
2019-02-02T23:58:20.383Z,83.95
